Sidney Municipal Airport

About
Name: Sidney Municipal Airport
Identifier:  SNY/KSNY
Local Time:  17. Aug 23:11 MDT
Location
Flights per Day
0 flights
Distance: 198km (123mi)
Punctuality
50% (0 flights per day delayed)
Delay Average: 78 minutes
Current Weather
 19 C (Humidity: 42%)
  14kt (25km/h / 16mph) from 330°
  16km (10 mi.)
 
 METAR KSNY 180453Z AUTO 33014KT 10SM CLR 19/06 A2991 RMK AO2 SLP069 T01890061

Current Flights

Departures
Number Departure To Airline
Arrivals
Number Arrival From Airline

Current Delays

Departures
N/A
Arrivals
N/A

Destinations

Top Destinations
Airport Flights
per week
Seats
per week
  Denver (DEN) 8 - 1 0
  Denver (BJC) 1 - 0 0
  Oshkosh (OSH) 0 - 0 0
  Lincoln (LNK) 0 - 0 0
  Holdrege () 0 - 0 0
  Bryce (BCE) 0 - 0 0
  Cheyenne (CYS) 0 - 0 0
  San Diego (SAN) 0 - 0 0
  Flagstaff (FLG) 0 - 0 0
  Jackson (JAC) 0 - 0 0
  Las Vegas (VGT) 0 - 0 0
  North Platte (LBF) 0 - 0 0
  Denver (APA) 0 - 0 0

Airlines & Planes

Top Airlines
Airline Flights
per Day
Seats
per Day
Bemidji Airlines 0 -
  Key Lime Air 0 -
Silverhawk Aviation 0 -
Jet Charter Inc ( Franklin Lakes Nj ) 0 -
Nordwind Airlines 0 -
  Nolinor Aviation 0 -
  Novair 0 -
Top Plane Types
Model Flights Seats
Beech 65 Queen Air 0.9/day - 0
Fairchild SA227-DC Metro 23 0.3/day - 0
Cessna C172 0.2/day - 0
Beech E90 King Air 0.1/day - 0
Beech C-99 Airliner 0.1/day - 0
Cessna C56X 0.1/day - 0
Cessna C402 0.0/day - 0